Time;durP1;ratioP1;P1;durP2;ratioP2;P2;SDS_P1;SDS_P2;PMS_P1;PMS_P2;Temp;Humidity;BMP_temperature;BMP_pressure;BME280_temperature;BME280_humidity;BME280_pressure;Samples;Min_cycle;Max_cycle;Signal;HPM_P1;HPM_P2
2024/03/11 00:01:42;;;;;;;3.60;3.30;;;7.00;99.90;;;;;;493956;241;27872;-71
2024/03/11 00:03:42;;;;;;;3.40;3.10;;;7.00;99.90;;;;;;493882;241;28182;-74
2024/03/11 00:05:43;;;;;;;3.60;3.30;;;7.00;99.90;;;;;;494020;241;27958;-74
2024/03/11 00:07:46;;;;;;;3.60;3.30;;;6.90;99.90;;;;;;493956;241;28086;-74
2024/03/11 00:09:45;;;;;;;3.97;3.67;;;6.90;99.90;;;;;;493768;241;27711;-74
2024/03/11 00:11:56;;;;;;;4.20;3.80;;;6.90;99.90;;;;;;494006;241;28061;-71
2024/03/11 00:13:57;;;;;;;4.17;3.80;;;6.90;99.90;;;;;;493988;241;27941;-73
2024/03/11 00:15:59;;;;;;;3.87;3.20;;;6.90;99.90;;;;;;493996;241;28849;-71
2024/03/11 00:17:59;;;;;;;3.50;3.10;;;6.90;99.90;;;;;;493937;241;27930;-72
2024/03/11 00:20:01;;;;;;;3.27;2.97;;;6.80;99.90;;;;;;493945;237;28126;-72
2024/03/11 00:22:02;;;;;;;3.33;2.60;;;6.80;99.90;;;;;;493972;241;27979;-71
2024/03/11 00:24:03;;;;;;;4.03;3.10;;;6.80;99.90;;;;;;493951;241;28109;-74
2024/03/11 00:26:05;;;;;;;3.03;2.83;;;6.80;99.90;;;;;;493987;241;27976;-72
2024/03/11 00:28:07;;;;;;;2.73;2.53;;;6.80;99.90;;;;;;493926;241;27822;-71
2024/03/11 00:30:11;;;;;;;2.67;2.47;;;6.70;99.90;;;;;;493822;241;27653;-73
2024/03/11 00:32:09;;;;;;;2.47;2.27;;;6.70;99.90;;;;;;493712;241;28435;-75
2024/03/11 00:34:10;;;;;;;5.07;2.57;;;6.70;99.90;;;;;;493932;237;28040;-73
2024/03/11 00:36:11;;;;;;;2.90;2.70;;;6.70;99.90;;;;;;493978;241;28465;-72
2024/03/11 00:38:12;;;;;;;2.90;2.70;;;6.70;99.90;;;;;;493883;241;28466;-74
2024/03/11 00:40:13;;;;;;;2.60;2.37;;;6.60;99.90;;;;;;493972;241;29066;-74
2024/03/11 00:42:15;;;;;;;2.60;2.40;;;6.50;99.90;;;;;;493988;241;28474;-72
2024/03/11 00:44:16;;;;;;;9.40;2.53;;;6.50;99.90;;;;;;493958;241;28000;-71
2024/03/11 00:46:18;;;;;;;2.63;2.40;;;6.50;99.90;;;;;;493958;241;27989;-73
2024/03/11 00:48:20;;;;;;;2.53;2.33;;;6.50;99.90;;;;;;493831;238;28079;-71
2024/03/11 00:50:20;;;;;;;4.57;2.60;;;6.40;99.90;;;;;;493878;241;27972;-74
2024/03/11 00:52:21;;;;;;;2.10;2.00;;;6.50;99.90;;;;;;493991;241;27972;-71
2024/03/11 00:54:22;;;;;;;2.10;2.00;;;6.40;99.90;;;;;;493627;241;27974;-74
2024/03/11 00:56:23;;;;;;;2.70;2.10;;;6.40;99.90;;;;;;493968;241;27525;-73
2024/03/11 00:58:24;;;;;;;2.30;2.10;;;6.40;99.90;;;;;;493962;241;28040;-74
2024/03/11 01:00:26;;;;;;;2.10;1.90;;;6.50;99.90;;;;;;494004;238;27952;-74
2024/03/11 01:02:27;;;;;;;2.53;2.30;;;6.50;99.90;;;;;;493940;237;28016;-72
2024/03/11 01:04:28;;;;;;;4.13;2.10;;;6.50;99.90;;;;;;493918;241;28022;-71
2024/03/11 01:06:29;;;;;;;2.70;2.50;;;6.50;99.90;;;;;;493966;241;27664;-74
2024/03/11 01:08:31;;;;;;;2.63;2.43;;;6.50;99.90;;;;;;493940;241;28101;-72
2024/03/11 01:10:32;;;;;;;2.40;2.20;;;6.40;99.90;;;;;;493986;241;28033;-71
2024/03/11 01:12:33;;;;;;;2.33;2.23;;;6.50;99.90;;;;;;494015;241;28057;-72
2024/03/11 01:14:36;;;;;;;3.07;2.77;;;6.50;99.90;;;;;;493971;241;28940;-72
2024/03/11 01:16:37;;;;;;;2.93;2.73;;;6.50;99.90;;;;;;493921;241;28220;-72
2024/03/11 01:18:37;;;;;;;3.00;2.77;;;6.50;99.90;;;;;;493797;241;28486;-73
2024/03/11 01:20:38;;;;;;;2.80;2.60;;;6.60;99.90;;;;;;493999;241;27944;-72
2024/03/11 01:22:42;;;;;;;3.23;2.60;;;6.50;99.90;;;;;;493958;241;28089;-73
2024/03/11 01:24:43;;;;;;;3.17;2.87;;;6.50;99.90;;;;;;493958;241;28554;-72
2024/03/11 01:26:48;;;;;;;2.90;2.70;;;6.60;99.90;;;;;;493939;241;28902;-72
2024/03/11 01:28:49;;;;;;;3.12;2.72;;;6.50;99.90;;;;;;493915;241;29209;-72
2024/03/11 01:30:50;;;;;;;2.70;2.50;;;6.60;99.90;;;;;;493967;241;27477;-73
2024/03/11 01:32:51;;;;;;;3.47;3.17;;;6.60;99.90;;;;;;494004;241;27971;-72
2024/03/11 01:34:53;;;;;;;2.97;2.77;;;6.60;99.90;;;;;;493945;241;28116;-72
2024/03/11 01:36:54;;;;;;;3.40;3.10;;;6.50;99.90;;;;;;493908;241;28014;-72
2024/03/11 01:38:55;;;;;;;3.00;2.80;;;6.60;99.90;;;;;;493939;241;28083;-72
2024/03/11 01:40:56;;;;;;;3.57;2.70;;;6.60;99.90;;;;;;493997;241;27794;-72
2024/03/11 01:42:58;;;;;;;3.50;3.20;;;6.60;99.90;;;;;;493976;237;27862;-72
2024/03/11 01:44:59;;;;;;;3.60;3.40;;;6.60;99.90;;;;;;493902;241;28047;-71
2024/03/11 01:47:01;;;;;;;3.80;3.40;;;6.60;99.90;;;;;;493942;241;27944;-72
2024/03/11 01:49:04;;;;;;;4.53;4.13;;;6.60;99.90;;;;;;493907;241;28542;-73
2024/03/11 01:51:04;;;;;;;5.57;4.73;;;6.60;99.90;;;;;;493737;241;27965;-72
2024/03/11 01:53:04;;;;;;;6.50;4.90;;;6.60;99.90;;;;;;493887;241;27993;-72
2024/03/11 01:55:05;;;;;;;5.13;4.57;;;6.60;99.90;;;;;;493933;241;27927;-73
2024/03/11 01:57:06;;;;;;;4.93;4.43;;;6.60;99.90;;;;;;493950;241;27963;-73
2024/03/11 01:59:08;;;;;;;5.80;5.20;;;6.60;99.90;;;;;;493923;241;28460;-73
2024/03/11 02:01:09;;;;;;;6.17;5.10;;;6.70;99.90;;;;;;493933;241;28525;-73
2024/03/11 02:03:10;;;;;;;5.03;4.60;;;6.70;99.90;;;;;;493945;241;28437;-73
2024/03/11 02:05:15;;;;;;;5.73;5.23;;;6.70;99.90;;;;;;493953;241;28848;-73
2024/03/11 02:07:13;;;;;;;5.97;5.47;;;6.70;99.90;;;;;;493707;241;29168;-73
2024/03/11 02:09:14;;;;;;;5.40;4.90;;;6.70;99.90;;;;;;493793;241;27968;-74
2024/03/11 02:11:17;;;;;;;5.50;5.00;;;6.70;99.90;;;;;;493946;241;27918;-72
2024/03/11 02:13:17;;;;;;;5.23;4.73;;;6.70;99.90;;;;;;493752;241;27541;-74
2024/03/11 02:15:18;;;;;;;6.10;4.80;;;6.80;99.90;;;;;;493982;241;28072;-72
2024/03/11 02:17:19;;;;;;;6.47;5.87;;;6.70;99.90;;;;;;493961;241;27993;-72
2024/03/11 02:19:20;;;;;;;5.67;5.17;;;6.70;99.90;;;;;;493944;237;27974;-72
2024/03/11 02:21:22;;;;;;;6.40;5.80;;;6.70;99.90;;;;;;493924;241;28413;-73
2024/03/11 02:23:24;;;;;;;6.70;6.00;;;6.70;99.90;;;;;;493919;241;27901;-72
2024/03/11 02:25:27;;;;;;;6.43;5.83;;;6.70;99.90;;;;;;493884;241;28383;-73
2024/03/11 02:27:30;;;;;;;6.93;6.33;;;6.70;99.90;;;;;;493816;241;28409;-73
2024/03/11 02:29:30;;;;;;;10.70;5.80;;;6.70;99.90;;;;;;493767;241;27946;-72
2024/03/11 02:31:31;;;;;;;7.27;5.70;;;6.70;99.90;;;;;;493979;241;27975;-73
2024/03/11 02:33:32;;;;;;;6.33;5.73;;;6.70;99.90;;;;;;493965;241;27968;-72
2024/03/11 02:35:33;;;;;;;6.63;5.93;;;6.70;99.90;;;;;;493972;241;28105;-73
2024/03/11 02:37:34;;;;;;;8.10;7.30;;;6.70;99.90;;;;;;493929;241;27988;-73
2024/03/11 02:39:35;;;;;;;7.03;6.03;;;6.80;99.90;;;;;;493976;241;27944;-73
2024/03/11 02:41:37;;;;;;;9.60;8.60;;;6.80;99.90;;;;;;493962;241;28091;-73
2024/03/11 02:43:38;;;;;;;9.00;7.53;;;6.80;99.90;;;;;;493991;241;28452;-73
2024/03/11 02:45:39;;;;;;;7.70;6.90;;;6.80;99.90;;;;;;493992;241;28067;-72
2024/03/11 02:47:41;;;;;;;9.60;8.60;;;6.80;99.90;;;;;;493897;241;28117;-73
2024/03/11 02:49:42;;;;;;;7.93;6.80;;;6.80;99.90;;;;;;493907;237;28014;-72
2024/03/11 02:51:44;;;;;;;8.90;8.00;;;6.80;99.90;;;;;;493877;241;28313;-72
2024/03/11 02:53:45;;;;;;;10.37;8.90;;;6.80;99.90;;;;;;493811;241;28043;-73
2024/03/11 02:55:46;;;;;;;11.37;10.23;;;6.80;99.90;;;;;;493951;241;28059;-72
2024/03/11 02:57:48;;;;;;;10.83;9.10;;;6.80;99.90;;;;;;493875;241;27874;-72
2024/03/11 02:59:49;;;;;;;11.10;9.57;;;6.80;99.90;;;;;;493864;241;27960;-73
2024/03/11 03:01:50;;;;;;;9.03;8.13;;;6.80;99.90;;;;;;493864;241;28472;-74
2024/03/11 03:03:51;;;;;;;11.80;9.00;;;6.80;99.90;;;;;;493926;241;28577;-72
2024/03/11 03:05:52;;;;;;;11.07;9.90;;;6.80;99.90;;;;;;493914;241;28496;-72
2024/03/11 03:07:53;;;;;;;12.60;10.27;;;6.80;99.90;;;;;;493899;241;28367;-74
2024/03/11 03:09:54;;;;;;;12.30;10.63;;;6.80;99.90;;;;;;493924;241;28015;-74
2024/03/11 03:11:56;;;;;;;10.97;9.87;;;6.80;99.90;;;;;;493985;241;27959;-73
2024/03/11 03:13:57;;;;;;;12.23;10.77;;;6.80;99.90;;;;;;493988;241;27787;-72
2024/03/11 03:15:58;;;;;;;14.13;11.73;;;6.80;99.90;;;;;;493968;241;27946;-72
2024/03/11 03:17:59;;;;;;;14.07;12.10;;;6.80;99.90;;;;;;493914;241;27603;-73
2024/03/11 03:20:01;;;;;;;14.27;10.57;;;6.80;99.90;;;;;;493986;241;28476;-74
2024/03/11 03:22:02;;;;;;;12.37;10.00;;;6.80;99.90;;;;;;493978;241;28211;-73
2024/03/11 03:24:03;;;;;;;17.83;11.17;;;6.80;99.90;;;;;;493964;241;27852;-73
2024/03/11 03:26:05;;;;;;;12.27;11.07;;;6.80;99.90;;;;;;493920;241;27606;-73
2024/03/11 03:28:06;;;;;;;9.90;8.87;;;6.80;99.90;;;;;;493917;241;27972;-71
2024/03/11 03:30:07;;;;;;;11.67;9.87;;;6.80;99.90;;;;;;493974;241;27954;-74
2024/03/11 03:32:12;;;;;;;9.87;8.87;;;6.80;99.90;;;;;;493986;241;27695;-74
2024/03/11 03:34:13;;;;;;;11.87;9.93;;;6.80;99.90;;;;;;493830;241;27853;-70
2024/03/11 03:36:13;;;;;;;9.93;8.90;;;6.80;99.90;;;;;;493965;241;27879;-74
2024/03/11 03:38:15;;;;;;;13.40;9.13;;;6.80;99.90;;;;;;493911;241;27861;-72
2024/03/11 03:40:16;;;;;;;9.00;8.10;;;6.80;99.90;;;;;;493996;237;27952;-73
2024/03/11 03:42:17;;;;;;;10.83;9.67;;;6.80;99.90;;;;;;493985;237;28126;-73
2024/03/11 03:44:19;;;;;;;11.10;10.00;;;6.80;99.90;;;;;;493956;241;27698;-73
2024/03/11 03:46:20;;;;;;;11.30;8.93;;;6.80;99.90;;;;;;493979;241;28189;-73
2024/03/11 03:48:21;;;;;;;10.83;8.50;;;6.80;99.90;;;;;;493892;241;28002;-74
2024/03/11 03:50:22;;;;;;;11.00;8.40;;;6.80;99.90;;;;;;493802;241;28028;-74
2024/03/11 03:52:24;;;;;;;11.60;8.80;;;6.80;99.90;;;;;;493996;241;27634;-74
2024/03/11 03:54:27;;;;;;;14.47;9.60;;;6.80;99.90;;;;;;493947;241;27953;-73
2024/03/11 03:56:26;;;;;;;15.00;9.40;;;6.80;99.90;;;;;;493803;241;27887;-72
2024/03/11 03:58:27;;;;;;;12.13;8.83;;;6.70;99.90;;;;;;493943;241;28368;-73
2024/03/11 04:00:29;;;;;;;9.53;8.50;;;6.80;99.90;;;;;;493977;241;28986;-70
2024/03/11 04:02:30;;;;;;;10.33;8.67;;;6.80;99.90;;;;;;493991;241;28460;-72
2024/03/11 04:04:31;;;;;;;10.17;9.17;;;6.80;99.90;;;;;;493934;241;28414;-73
2024/03/11 04:06:32;;;;;;;9.03;8.17;;;6.80;99.90;;;;;;494008;241;27901;-73
2024/03/11 04:08:34;;;;;;;10.30;9.20;;;6.80;99.90;;;;;;493962;241;28009;-73
2024/03/11 04:10:35;;;;;;;10.07;9.03;;;6.80;99.90;;;;;;493990;241;27795;-73
2024/03/11 04:12:36;;;;;;;11.17;9.97;;;6.80;99.90;;;;;;493978;241;27968;-74
2024/03/11 04:14:37;;;;;;;11.70;9.53;;;6.80;99.90;;;;;;493997;241;27857;-73
2024/03/11 04:16:39;;;;;;;10.53;8.10;;;6.70;99.90;;;;;;494022;241;28149;-72
2024/03/11 04:18:42;;;;;;;10.53;8.70;;;6.80;99.90;;;;;;493940;241;27664;-74
2024/03/11 04:20:42;;;;;;;9.70;8.53;;;6.80;99.90;;;;;;493833;237;28838;-72
2024/03/11 04:22:42;;;;;;;9.23;7.60;;;6.80;99.90;;;;;;493956;237;28074;-73
2024/03/11 04:24:44;;;;;;;11.13;8.60;;;6.80;99.90;;;;;;494007;241;28467;-74
2024/03/11 04:26:45;;;;;;;9.10;8.20;;;6.80;99.90;;;;;;494031;241;28381;-73
2024/03/11 04:28:46;;;;;;;8.43;7.43;;;6.80;99.90;;;;;;493987;241;28696;-74
2024/03/11 04:30:48;;;;;;;10.00;8.67;;;6.80;99.90;;;;;;493974;241;28274;-74
2024/03/11 04:32:52;;;;;;;7.50;6.70;;;6.80;99.90;;;;;;493947;241;27836;-73
2024/03/11 04:34:53;;;;;;;9.50;7.67;;;6.80;99.90;;;;;;493979;241;27897;-73
2024/03/11 04:36:54;;;;;;;9.93;8.87;;;6.80;99.90;;;;;;493956;241;28845;-74
2024/03/11 04:38:55;;;;;;;12.40;8.93;;;6.80;99.90;;;;;;493911;241;27923;-72
2024/03/11 04:40:57;;;;;;;9.57;8.60;;;6.80;99.90;;;;;;493956;241;27985;-74
2024/03/11 04:42:58;;;;;;;11.00;8.47;;;6.70;99.90;;;;;;493985;241;28080;-74
2024/03/11 04:44:59;;;;;;;10.50;8.70;;;6.80;99.90;;;;;;493949;241;27948;-74
2024/03/11 04:47:00;;;;;;;8.93;7.90;;;6.70;99.90;;;;;;493962;241;27749;-73
2024/03/11 04:49:02;;;;;;;9.87;8.87;;;6.70;99.90;;;;;;493888;241;27831;-73
2024/03/11 04:51:04;;;;;;;10.38;9.05;;;6.80;99.90;;;;;;494018;241;27916;-74
2024/03/11 04:53:04;;;;;;;9.03;8.10;;;6.80;99.90;;;;;;493810;241;27518;-73
2024/03/11 04:55:09;;;;;;;9.23;8.30;;;6.70;99.90;;;;;;493955;241;27946;-73
2024/03/11 04:57:07;;;;;;;8.50;7.70;;;6.70;99.90;;;;;;493711;241;28435;-73
2024/03/11 04:59:08;;;;;;;10.03;7.40;;;6.70;99.90;;;;;;493953;241;28410;-75
2024/03/11 05:01:09;;;;;;;10.10;8.60;;;6.70;99.90;;;;;;493995;241;28240;-73
2024/03/11 05:03:12;;;;;;;9.97;7.80;;;6.70;99.90;;;;;;493908;241;28642;-73
2024/03/11 05:05:12;;;;;;;8.67;7.77;;;6.70;99.90;;;;;;493772;241;27871;-73
2024/03/11 05:07:13;;;;;;;8.97;8.07;;;6.70;99.90;;;;;;493945;241;27956;-73
2024/03/11 05:09:15;;;;;;;9.30;8.37;;;6.70;99.90;;;;;;493915;241;27907;-73
2024/03/11 05:11:16;;;;;;;8.90;8.00;;;6.70;99.90;;;;;;493981;241;27595;-74
2024/03/11 05:13:17;;;;;;;11.00;8.60;;;6.80;99.90;;;;;;493934;241;27852;-73
2024/03/11 05:15:18;;;;;;;10.10;9.00;;;6.70;99.90;;;;;;493952;241;28022;-72
2024/03/11 05:17:19;;;;;;;9.13;7.83;;;6.70;99.90;;;;;;493967;241;28668;-73
2024/03/11 05:19:20;;;;;;;8.47;7.67;;;6.70;99.90;;;;;;493955;241;28218;-74
2024/03/11 05:21:22;;;;;;;9.30;8.40;;;6.70;99.90;;;;;;493974;241;27868;-73
2024/03/11 05:23:23;;;;;;;10.63;9.20;;;6.70;99.90;;;;;;493952;241;27766;-73
2024/03/11 05:25:24;;;;;;;10.63;8.47;;;6.70;99.90;;;;;;493929;241;28026;-73
2024/03/11 05:27:25;;;;;;;11.10;7.17;;;6.70;99.90;;;;;;493985;241;28417;-71
2024/03/11 05:29:27;;;;;;;11.27;9.43;;;6.70;99.90;;;;;;493931;241;28195;-73
2024/03/11 05:31:28;;;;;;;10.40;9.00;;;6.60;99.90;;;;;;493954;241;27464;-74
2024/03/11 05:33:29;;;;;;;11.60;8.40;;;6.60;99.90;;;;;;493879;241;28548;-72
2024/03/11 05:35:31;;;;;;;12.30;8.45;;;6.60;99.90;;;;;;494011;241;28885;-72
2024/03/11 05:37:32;;;;;;;9.50;8.60;;;6.60;99.90;;;;;;493924;241;27475;-73
2024/03/11 05:39:34;;;;;;;10.10;8.60;;;6.60;99.90;;;;;;493936;241;28110;-71
2024/03/11 05:41:34;;;;;;;7.47;6.77;;;6.60;99.90;;;;;;493955;241;28560;-70
2024/03/11 05:43:36;;;;;;;9.50;7.53;;;6.60;99.90;;;;;;493961;241;28395;-72
2024/03/11 05:45:37;;;;;;;7.67;6.97;;;6.60;99.90;;;;;;493966;241;28575;-74
2024/03/11 05:47:41;;;;;;;8.03;7.17;;;6.60;99.90;;;;;;493901;241;28424;-70
2024/03/11 05:49:41;;;;;;;9.17;7.47;;;6.60;99.90;;;;;;493714;241;28095;-73
2024/03/11 05:51:41;;;;;;;9.33;7.80;;;6.70;99.90;;;;;;493853;241;28568;-73
2024/03/11 05:53:42;;;;;;;10.53;8.60;;;6.70;99.90;;;;;;493972;241;28029;-70
2024/03/11 05:55:43;;;;;;;9.48;8.45;;;6.60;99.90;;;;;;493951;241;27994;-74
2024/03/11 05:57:44;;;;;;;12.00;8.93;;;6.60;99.90;;;;;;493908;241;27500;-73
2024/03/11 05:59:46;;;;;;;9.40;8.50;;;6.60;99.90;;;;;;493917;241;28112;-74
2024/03/11 06:01:47;;;;;;;8.10;7.30;;;6.60;99.90;;;;;;493969;241;28434;-74
2024/03/11 06:03:50;;;;;;;9.20;8.20;;;6.60;99.90;;;;;;493959;237;28019;-73
2024/03/11 06:05:49;;;;;;;11.73;8.47;;;6.60;99.90;;;;;;493802;241;28098;-74
2024/03/11 06:07:51;;;;;;;12.27;9.00;;;6.60;99.90;;;;;;493893;241;27854;-73
2024/03/11 06:09:52;;;;;;;9.07;8.10;;;6.60;99.90;;;;;;493932;237;27723;-71
2024/03/11 06:11:53;;;;;;;8.30;7.17;;;6.60;99.90;;;;;;494001;241;28515;-75
2024/03/11 06:13:54;;;;;;;9.70;8.70;;;6.60;99.90;;;;;;493970;241;28439;-73
2024/03/11 06:15:56;;;;;;;10.10;7.60;;;6.70;99.90;;;;;;493923;237;28607;-73
2024/03/11 06:17:57;;;;;;;11.73;7.67;;;6.60;99.90;;;;;;493899;241;28492;-73
2024/03/11 06:19:58;;;;;;;10.63;9.30;;;6.60;99.90;;;;;;493973;241;28065;-73
2024/03/11 06:21:59;;;;;;;10.77;9.63;;;6.60;99.90;;;;;;493993;241;28010;-74
2024/03/11 06:24:01;;;;;;;10.00;9.00;;;6.50;99.90;;;;;;493957;241;28038;-72
2024/03/11 06:26:03;;;;;;;11.53;8.57;;;6.50;99.90;;;;;;493926;241;27966;-73
2024/03/11 06:28:04;;;;;;;9.07;8.17;;;6.50;99.90;;;;;;493879;241;27904;-73
2024/03/11 06:30:05;;;;;;;10.17;9.03;;;6.50;99.90;;;;;;493929;241;27517;-73
2024/03/11 06:32:06;;;;;;;12.33;8.43;;;6.60;99.90;;;;;;493952;241;28069;-74
2024/03/11 06:34:07;;;;;;;11.83;7.93;;;6.60;99.90;;;;;;493894;241;28683;-73
2024/03/11 06:36:08;;;;;;;10.23;8.80;;;6.60;99.90;;;;;;493907;241;27853;-73
2024/03/11 06:38:09;;;;;;;11.87;8.87;;;6.60;99.90;;;;;;493934;241;28193;-73
2024/03/11 06:40:32;;;;;;;11.87;9.70;;;6.70;99.90;;;;;;493954;241;28374;-73
2024/03/11 06:42:12;;;;;;;13.03;8.70;;;6.60;99.90;;;;;;492265;241;28480;-72
2024/03/11 06:44:13;;;;;;;10.10;9.07;;;6.60;99.90;;;;;;493930;237;28522;-74
2024/03/11 06:46:15;;;;;;;10.73;8.40;;;6.60;99.90;;;;;;493916;241;27831;-74
2024/03/11 06:48:16;;;;;;;15.03;9.23;;;6.70;99.90;;;;;;493932;241;28028;-74
2024/03/11 06:50:18;;;;;;;8.27;7.43;;;6.70;99.90;;;;;;493976;237;28054;-72
2024/03/11 06:52:18;;;;;;;9.07;7.87;;;6.60;99.90;;;;;;493920;237;28248;-72
2024/03/11 06:54:20;;;;;;;10.47;8.80;;;6.70;99.90;;;;;;493920;241;28045;-73
2024/03/11 06:56:21;;;;;;;8.30;7.33;;;6.70;99.90;;;;;;493951;241;28061;-73
2024/03/11 06:58:22;;;;;;;9.67;8.27;;;6.70;99.90;;;;;;493945;241;28089;-74
2024/03/11 07:00:25;;;;;;;11.80;7.80;;;6.70;99.90;;;;;;493961;241;27925;-73
2024/03/11 07:02:24;;;;;;;9.80;8.67;;;6.80;99.90;;;;;;493860;241;27849;-73
2024/03/11 07:04:26;;;;;;;10.67;8.80;;;6.80;99.90;;;;;;493975;241;27607;-73
2024/03/11 07:06:27;;;;;;;9.40;8.10;;;6.80;99.90;;;;;;494001;241;27795;-73
2024/03/11 07:08:28;;;;;;;9.60;8.60;;;6.90;99.90;;;;;;493830;241;28463;-72
2024/03/11 07:10:29;;;;;;;11.30;8.67;;;6.90;99.90;;;;;;493970;237;28012;-71
2024/03/11 07:12:31;;;;;;;8.80;7.90;;;6.80;99.90;;;;;;493969;241;28145;-73
2024/03/11 07:14:32;;;;;;;9.90;8.10;;;6.80;99.90;;;;;;494000;237;28667;-74
2024/03/11 07:16:33;;;;;;;9.93;7.80;;;6.80;99.90;;;;;;494019;241;27588;-72
2024/03/11 07:18:35;;;;;;;9.30;8.40;;;6.90;99.90;;;;;;493943;241;27740;-72
2024/03/11 07:20:36;;;;;;;8.70;7.77;;;6.90;99.90;;;;;;493970;241;27914;-74
2024/03/11 07:22:38;;;;;;;8.80;7.57;;;7.00;99.90;;;;;;493957;241;27767;-74
2024/03/11 07:24:40;;;;;;;9.13;7.93;;;7.00;99.90;;;;;;493924;241;27506;-75
2024/03/11 07:26:40;;;;;;;8.60;7.77;;;6.90;99.90;;;;;;493844;237;27940;-72
2024/03/11 07:28:41;;;;;;;9.63;8.17;;;6.90;99.90;;;;;;493920;241;27742;-74
2024/03/11 07:30:42;;;;;;;9.10;8.20;;;6.90;99.90;;;;;;493951;241;27910;-72
2024/03/11 07:32:43;;;;;;;8.33;7.53;;;7.00;99.90;;;;;;494009;237;28001;-74
2024/03/11 07:34:45;;;;;;;7.77;6.57;;;7.10;99.90;;;;;;493995;241;28151;-74
2024/03/11 07:36:46;;;;;;;7.77;6.77;;;7.20;99.90;;;;;;493984;241;27566;-73
2024/03/11 07:38:47;;;;;;;8.33;7.40;;;7.20;99.90;;;;;;493925;241;28010;-73
2024/03/11 07:40:48;;;;;;;7.67;6.57;;;7.20;99.90;;;;;;493962;241;27587;-73
2024/03/11 07:42:51;;;;;;;8.60;7.47;;;7.30;99.90;;;;;;494020;241;27926;-73
2024/03/11 07:44:51;;;;;;;7.33;6.37;;;7.40;99.90;;;;;;493849;241;28419;-73
2024/03/11 07:46:52;;;;;;;7.90;7.10;;;7.40;99.90;;;;;;493947;241;28601;-74
2024/03/11 07:48:54;;;;;;;11.70;7.27;;;7.40;99.90;;;;;;493949;241;28031;-74
2024/03/11 07:50:54;;;;;;;7.87;7.03;;;7.40;99.90;;;;;;493982;241;28414;-75
2024/03/11 07:52:56;;;;;;;7.87;6.70;;;7.40;99.90;;;;;;494022;241;28274;-73
2024/03/11 07:54:57;;;;;;;6.30;5.70;;;7.40;99.90;;;;;;494009;241;27743;-73
2024/03/11 07:56:58;;;;;;;9.47;6.07;;;7.40;99.90;;;;;;493793;241;27931;-74
2024/03/11 07:58:59;;;;;;;8.20;6.40;;;7.50;99.90;;;;;;493926;237;28005;-73
2024/03/11 08:01:01;;;;;;;7.27;6.57;;;7.60;99.90;;;;;;494019;241;28075;-75
2024/03/11 08:03:03;;;;;;;7.60;6.63;;;7.60;99.90;;;;;;493996;241;27930;-72
2024/03/11 08:05:03;;;;;;;7.13;5.93;;;7.70;99.90;;;;;;493946;241;27618;-73
2024/03/11 08:07:04;;;;;;;7.00;6.30;;;7.70;99.90;;;;;;493952;241;27900;-73
2024/03/11 08:09:07;;;;;;;9.90;6.80;;;7.70;99.90;;;;;;494007;241;27849;-74
2024/03/11 08:11:07;;;;;;;8.70;7.10;;;7.60;99.90;;;;;;493896;237;27895;-73
2024/03/11 08:13:08;;;;;;;6.73;6.03;;;7.60;99.90;;;;;;493971;241;28066;-73
2024/03/11 08:15:12;;;;;;;8.00;6.60;;;7.80;99.90;;;;;;493954;241;27926;-74
2024/03/11 08:17:11;;;;;;;7.83;7.03;;;7.80;99.90;;;;;;493737;237;28096;-73
2024/03/11 08:19:13;;;;;;;7.23;6.50;;;7.80;99.90;;;;;;493966;237;27963;-73
2024/03/11 08:21:13;;;;;;;7.30;6.60;;;7.70;99.90;;;;;;493887;241;28356;-74
2024/03/11 08:23:14;;;;;;;8.20;7.00;;;7.70;99.90;;;;;;493954;241;28598;-73
2024/03/11 08:25:16;;;;;;;7.50;6.20;;;7.80;99.90;;;;;;493977;241;28493;-73
2024/03/11 08:27:17;;;;;;;6.57;5.87;;;8.00;99.90;;;;;;494007;241;28533;-75
2024/03/11 08:29:18;;;;;;;7.80;6.97;;;8.10;99.90;;;;;;493960;241;28513;-73
2024/03/11 08:31:19;;;;;;;9.63;6.47;;;8.00;99.90;;;;;;493988;241;28341;-74
2024/03/11 08:33:21;;;;;;;6.77;6.17;;;8.00;99.90;;;;;;493998;241;28055;-73
2024/03/11 08:35:23;;;;;;;7.30;6.60;;;8.10;99.90;;;;;;494025;241;28049;-74
2024/03/11 08:37:23;;;;;;;6.50;6.00;;;8.20;99.90;;;;;;493959;241;27980;-75
2024/03/11 08:39:26;;;;;;;8.23;6.30;;;8.40;99.90;;;;;;493979;241;27933;-73
2024/03/11 08:41:26;;;;;;;7.17;6.47;;;8.40;99.90;;;;;;493890;241;27983;-74
2024/03/11 08:43:27;;;;;;;7.90;6.37;;;8.50;99.90;;;;;;493970;241;27807;-73
2024/03/11 08:45:32;;;;;;;7.13;6.30;;;8.50;99.90;;;;;;494019;237;27717;-73
2024/03/11 08:47:29;;;;;;;6.87;5.87;;;8.50;99.90;;;;;;493699;241;28134;-75
2024/03/11 08:49:31;;;;;;;5.40;4.90;;;8.70;99.90;;;;;;493946;241;28027;-73
2024/03/11 08:51:32;;;;;;;7.43;4.80;;;8.70;99.90;;;;;;493958;241;27993;-73
2024/03/11 08:53:33;;;;;;;5.50;5.00;;;8.70;99.90;;;;;;493951;241;27981;-73
2024/03/11 08:55:34;;;;;;;5.90;5.40;;;8.70;99.90;;;;;;493988;237;27949;-73
2024/03/11 08:57:37;;;;;;;9.67;4.70;;;8.70;99.90;;;;;;493922;241;27854;-74
2024/03/11 08:59:39;;;;;;;5.43;4.50;;;8.90;99.90;;;;;;493838;241;28480;-72
2024/03/11 09:01:41;;;;;;;5.30;4.67;;;9.00;99.90;;;;;;493967;241;27607;-72
2024/03/11 09:03:42;;;;;;;4.50;4.10;;;8.90;99.90;;;;;;493945;241;27981;-73
2024/03/11 09:05:43;;;;;;;4.33;3.87;;;8.90;99.90;;;;;;494040;241;28078;-73
2024/03/11 09:07:45;;;;;;;4.70;4.23;;;9.00;99.90;;;;;;493927;241;28041;-74
2024/03/11 09:09:46;;;;;;;4.77;4.37;;;9.20;99.90;;;;;;493866;237;28083;-75
2024/03/11 09:11:47;;;;;;;4.33;3.93;;;9.00;99.90;;;;;;493957;241;27936;-73
2024/03/11 09:13:48;;;;;;;5.27;4.73;;;9.00;99.90;;;;;;493948;241;28504;-73
2024/03/11 09:15:49;;;;;;;4.33;3.93;;;9.10;99.90;;;;;;493993;241;28587;-74
2024/03/11 09:17:51;;;;;;;3.73;3.13;;;9.30;99.90;;;;;;493930;241;28521;-73
2024/03/11 09:19:54;;;;;;;4.80;3.47;;;9.40;99.90;;;;;;493973;241;28440;-74
2024/03/11 09:21:53;;;;;;;4.80;3.73;;;9.40;99.90;;;;;;493829;241;28271;-72
2024/03/11 09:23:54;;;;;;;6.83;3.97;;;9.20;99.90;;;;;;493972;241;28277;-73
2024/03/11 09:25:56;;;;;;;4.27;3.90;;;9.30;99.90;;;;;;494004;241;28090;-74
2024/03/11 09:28:03;;;;;;;6.20;4.00;;;9.40;99.90;;;;;;493938;241;28071;-73
2024/03/11 09:30:04;;;;;;;5.00;4.33;;;9.30;99.90;;;;;;493996;241;27999;-75
2024/03/11 09:32:05;;;;;;;4.00;3.70;;;9.20;99.90;;;;;;493970;241;28061;-73
2024/03/11 09:34:07;;;;;;;3.73;3.43;;;9.30;99.90;;;;;;493902;241;27797;-74
2024/03/11 09:36:08;;;;;;;4.40;3.97;;;9.30;99.90;;;;;;493984;241;28006;-75
2024/03/11 09:38:12;;;;;;;3.23;3.00;;;9.30;99.90;;;;;;493930;241;28051;-74
2024/03/11 09:40:10;;;;;;;4.17;3.33;;;9.30;99.90;;;;;;493675;237;28452;-73
2024/03/11 09:42:11;;;;;;;4.77;4.13;;;9.30;99.90;;;;;;493905;241;28444;-73
2024/03/11 09:44:13;;;;;;;4.67;3.13;;;9.40;99.90;;;;;;493970;241;28285;-74
2024/03/11 09:46:14;;;;;;;3.67;3.00;;;9.60;99.90;;;;;;493980;241;28546;-75
2024/03/11 09:48:17;;;;;;;5.67;3.70;;;9.70;99.90;;;;;;493898;241;28109;-73
2024/03/11 09:50:16;;;;;;;3.10;2.80;;;9.60;99.90;;;;;;493846;241;28480;-74
2024/03/11 09:52:18;;;;;;;3.57;3.27;;;9.70;99.90;;;;;;493917;241;28367;-73
2024/03/11 09:54:19;;;;;;;3.07;2.80;;;9.80;99.90;;;;;;493962;241;27936;-73
2024/03/11 09:56:21;;;;;;;4.43;3.13;;;9.70;99.90;;;;;;493925;241;27942;-73
2024/03/11 09:58:23;;;;;;;3.10;2.77;;;9.70;99.90;;;;;;493885;241;28064;-74
2024/03/11 10:00:24;;;;;;;3.07;2.70;;;9.60;99.90;;;;;;493824;241;28085;-74
2024/03/11 10:02:26;;;;;;;3.53;3.13;;;9.70;99.90;;;;;;493874;241;28011;-73
2024/03/11 10:04:26;;;;;;;2.73;2.53;;;9.90;99.90;;;;;;493705;241;27970;-74
2024/03/11 10:06:30;;;;;;;3.10;2.90;;;10.00;99.90;;;;;;493951;241;27914;-74
2024/03/11 10:08:35;;;;;;;3.10;2.80;;;10.00;99.90;;;;;;493881;241;28199;-75
2024/03/11 10:10:35;;;;;;;6.63;2.60;;;10.00;99.90;;;;;;493769;241;27998;-73
2024/03/11 10:12:36;;;;;;;2.87;2.57;;;9.90;99.90;;;;;;493934;241;28058;-72
2024/03/11 10:14:38;;;;;;;3.20;2.90;;;10.00;99.90;;;;;;493944;241;28196;-73
2024/03/11 10:16:38;;;;;;;2.87;2.60;;;10.30;99.90;;;;;;493907;241;27885;-74
2024/03/11 10:18:40;;;;;;;3.60;2.37;;;10.40;99.90;;;;;;493904;241;27981;-73
2024/03/11 10:20:43;;;;;;;2.70;2.50;;;10.40;99.90;;;;;;493752;241;28090;-73
2024/03/11 10:22:47;;;;;;;3.00;2.50;;;10.50;99.90;;;;;;493742;241;28026;-73
2024/03/11 10:24:43;;;;;;;2.67;2.47;;;10.30;99.90;;;;;;493577;241;28283;-74
2024/03/11 10:26:45;;;;;;;5.93;2.97;;;9.90;99.90;;;;;;493925;237;28214;-75
2024/03/11 10:28:47;;;;;;;2.60;2.40;;;9.80;99.90;;;;;;493873;241;27994;-73
2024/03/11 10:30:47;;;;;;;2.67;2.20;;;9.80;99.90;;;;;;493838;241;28564;-74
2024/03/11 10:32:57;;;;;;;4.63;2.80;;;9.90;99.90;;;;;;493952;241;28959;-73
2024/03/11 10:34:58;;;;;;;8.70;3.10;;;10.00;99.90;;;;;;493961;241;28763;-75
2024/03/11 10:37:00;;;;;;;4.63;2.90;;;10.00;99.90;;;;;;493984;237;28018;-73